<?xml version="1.0" encoding="UTF-8" standalone="no" ?>
<gpx xmlns="http://www.topografix.com/GPX/1/1" xmlns:xsi="http://www.w3.org/2001/XMLSchema-instance" xsi:schemaLocation="http://www.topografix.com/GPX/1/1 http://www.topografix.com/GPX/1/1/gpx.xsd" version="1.1" creator="VisuGPX - https://www.visugpx.com">
  <metadata>
    <name>2012-10-12 Roc Odyssey</name>
    <desc><![CDATA[35 km et 800 mètres 
attention ce parcours peut emprunter des chemins privés!]]></desc>
  </metadata>
  <trk>
    <name><![CDATA[Roc Odyssey]]></name>
    <trkseg>
      <trkpt lat="43.41851" lon="6.73713">
        <ele>3.4000001</ele>
        <time>2012-10-12T12:01:16Z</time>
      </trkpt>
      <trkpt lat="43.41685" lon="6.73672">
        <ele>3.2</ele>
        <time>2012-10-12T12:02:25Z</time>
      </trkpt>
      <trkpt lat="43.41656" lon="6.73644">
        <ele>3.2</ele>
        <time>2012-10-12T12:02:36Z</time>
      </trkpt>
      <trkpt lat="43.41618" lon="6.73562">
        <ele>3.2</ele>
        <time>2012-10-12T12:02:58Z</time>
      </trkpt>
      <trkpt lat="43.41626" lon="6.73498">
        <ele>3.2</ele>
        <time>2012-10-12T12:03:13Z</time>
      </trkpt>
      <trkpt lat="43.41797" lon="6.73448">
        <ele>3.2</ele>
        <time>2012-10-12T12:04:06Z</time>
      </trkpt>
      <trkpt lat="43.41834" lon="6.73364">
        <ele>3.2</ele>
        <time>2012-10-12T12:04:28Z</time>
      </trkpt>
      <trkpt lat="43.41829" lon="6.73291">
        <ele>3.2</ele>
        <time>2012-10-12T12:04:44Z</time>
      </trkpt>
      <trkpt lat="43.4165" lon="6.72834">
        <ele>5</ele>
        <time>2012-10-12T12:06:40Z</time>
      </trkpt>
      <trkpt lat="43.41606" lon="6.72811">
        <ele>5.4000001</ele>
        <time>2012-10-12T12:06:57Z</time>
      </trkpt>
      <trkpt lat="43.41528" lon="6.72856">
        <ele>5.4000001</ele>
        <time>2012-10-12T12:07:22Z</time>
      </trkpt>
      <trkpt lat="43.41351" lon="6.73098">
        <ele>5.4000001</ele>
        <time>2012-10-12T12:08:18Z</time>
      </trkpt>
      <trkpt lat="43.41328" lon="6.73163">
        <ele>5.4000001</ele>
        <time>2012-10-12T12:08:30Z</time>
      </trkpt>
      <trkpt lat="43.41275" lon="6.73201">
        <ele>5.4000001</ele>
        <time>2012-10-12T12:09:07Z</time>
      </trkpt>
      <trkpt lat="43.41229" lon="6.73198">
        <ele>5.4000001</ele>
        <time>2012-10-12T12:09:42Z</time>
      </trkpt>
      <trkpt lat="43.41182" lon="6.73135">
        <ele>5.4000001</ele>
        <time>2012-10-12T12:10:08Z</time>
      </trkpt>
      <trkpt lat="43.41184" lon="6.73093">
        <ele>5.4000001</ele>
        <time>2012-10-12T12:10:18Z</time>
      </trkpt>
      <trkpt lat="43.4126" lon="6.72988">
        <ele>5.4000001</ele>
        <time>2012-10-12T12:10:46Z</time>
      </trkpt>
      <trkpt lat="43.41236" lon="6.7288">
        <ele>5.4000001</ele>
        <time>2012-10-12T12:11:06Z</time>
      </trkpt>
      <trkpt lat="43.41175" lon="6.72826">
        <ele>5.4000001</ele>
        <time>2012-10-12T12:11:22Z</time>
      </trkpt>
      <trkpt lat="43.41202" lon="6.72717">
        <ele>5.4000001</ele>
        <time>2012-10-12T12:11:42Z</time>
      </trkpt>
      <trkpt lat="43.41127" lon="6.72603">
        <ele>5.4000001</ele>
        <time>2012-10-12T12:12:08Z</time>
      </trkpt>
      <trkpt lat="43.41147" lon="6.72556">
        <ele>5.4000001</ele>
        <time>2012-10-12T12:12:34Z</time>
      </trkpt>
      <trkpt lat="43.4116" lon="6.72462">
        <ele>5.4000001</ele>
        <time>2012-10-12T12:14:20Z</time>
      </trkpt>
      <trkpt lat="43.41193" lon="6.72474">
        <ele>5.4000001</ele>
        <time>2012-10-12T12:15:33Z</time>
      </trkpt>
      <trkpt lat="43.41181" lon="6.72502">
        <ele>7.4000001</ele>
        <time>2012-10-12T12:16:23Z</time>
      </trkpt>
      <trkpt lat="43.41165" lon="6.7251">
        <ele>7.4000001</ele>
        <time>2012-10-12T12:16:38Z</time>
      </trkpt>
      <trkpt lat="43.41132" lon="6.7249">
        <ele>9.3999996</ele>
        <time>2012-10-12T12:16:58Z</time>
      </trkpt>
      <trkpt lat="43.41039" lon="6.72421">
        <ele>9.3999996</ele>
        <time>2012-10-12T12:17:24Z</time>
      </trkpt>
      <trkpt lat="43.40909" lon="6.72413">
        <ele>9.3999996</ele>
        <time>2012-10-12T12:17:48Z</time>
      </trkpt>
      <trkpt lat="43.40899" lon="6.7237">
        <ele>7.8000002</ele>
        <time>2012-10-12T12:17:53Z</time>
      </trkpt>
      <trkpt lat="43.40879" lon="6.72346">
        <ele>7.4000001</ele>
        <time>2012-10-12T12:17:58Z</time>
      </trkpt>
      <trkpt lat="43.40743" lon="6.72301">
        <ele>7.4000001</ele>
        <time>2012-10-12T12:18:22Z</time>
      </trkpt>
      <trkpt lat="43.4073" lon="6.72275">
        <ele>7.4000001</ele>
        <time>2012-10-12T12:18:26Z</time>
      </trkpt>
      <trkpt lat="43.4079" lon="6.72113">
        <ele>7.4000001</ele>
        <time>2012-10-12T12:18:49Z</time>
      </trkpt>
      <trkpt lat="43.40822" lon="6.71934">
        <ele>7.4000001</ele>
        <time>2012-10-12T12:19:14Z</time>
      </trkpt>
      <trkpt lat="43.40897" lon="6.7177">
        <ele>7.4000001</ele>
        <time>2012-10-12T12:19:39Z</time>
      </trkpt>
      <trkpt lat="43.40945" lon="6.71495">
        <ele>7.4000001</ele>
        <time>2012-10-12T12:20:18Z</time>
      </trkpt>
      <trkpt lat="43.41018" lon="6.71437">
        <ele>7.4000001</ele>
        <time>2012-10-12T12:20:35Z</time>
      </trkpt>
      <trkpt lat="43.41109" lon="6.71294">
        <ele>7.4000001</ele>
        <time>2012-10-12T12:21:04Z</time>
      </trkpt>
      <trkpt lat="43.41153" lon="6.71269">
        <ele>7.4000001</ele>
        <time>2012-10-12T12:21:14Z</time>
      </trkpt>
      <trkpt lat="43.41222" lon="6.71191">
        <ele>7.4000001</ele>
        <time>2012-10-12T12:21:31Z</time>
      </trkpt>
      <trkpt lat="43.41271" lon="6.7108">
        <ele>7.4000001</ele>
        <time>2012-10-12T12:21:50Z</time>
      </trkpt>
      <trkpt lat="43.41423" lon="6.70839">
        <ele>7.4000001</ele>
        <time>2012-10-12T12:22:36Z</time>
      </trkpt>
      <trkpt lat="43.41451" lon="6.707">
        <ele>7.4000001</ele>
        <time>2012-10-12T12:22:59Z</time>
      </trkpt>
      <trkpt lat="43.41439" lon="6.70662">
        <ele>7.4000001</ele>
        <time>2012-10-12T12:23:06Z</time>
      </trkpt>
      <trkpt lat="43.41393" lon="6.70639">
        <ele>5.1999998</ele>
        <time>2012-10-12T12:23:16Z</time>
      </trkpt>
      <trkpt lat="43.4135" lon="6.7066">
        <ele>5.1999998</ele>
        <time>2012-10-12T12:23:26Z</time>
      </trkpt>
      <trkpt lat="43.41258" lon="6.70559">
        <ele>7.5999999</ele>
        <time>2012-10-12T12:23:58Z</time>
      </trkpt>
      <trkpt lat="43.41265" lon="6.70528">
        <ele>9.3999996</ele>
        <time>2012-10-12T12:24:04Z</time>
      </trkpt>
      <trkpt lat="43.41329" lon="6.70357">
        <ele>9.3999996</ele>
        <time>2012-10-12T12:24:35Z</time>
      </trkpt>
      <trkpt lat="43.41336" lon="6.70295">
        <ele>9.3999996</ele>
        <time>2012-10-12T12:24:44Z</time>
      </trkpt>
      <trkpt lat="43.41318" lon="6.70176">
        <ele>9.3999996</ele>
        <time>2012-10-12T12:25:03Z</time>
      </trkpt>
      <trkpt lat="43.41279" lon="6.70087">
        <ele>9.3999996</ele>
        <time>2012-10-12T12:25:28Z</time>
      </trkpt>
      <trkpt lat="43.41282" lon="6.70064">
        <ele>13.3999996</ele>
        <time>2012-10-12T12:25:37Z</time>
      </trkpt>
      <trkpt lat="43.41255" lon="6.69902">
        <ele>11.1999998</ele>
        <time>2012-10-12T12:26:05Z</time>
      </trkpt>
      <trkpt lat="43.41198" lon="6.69742">
        <ele>11.1999998</ele>
        <time>2012-10-12T12:26:40Z</time>
      </trkpt>
      <trkpt lat="43.41172" lon="6.69695">
        <ele>9.1999998</ele>
        <time>2012-10-12T12:26:51Z</time>
      </trkpt>
      <trkpt lat="43.41144" lon="6.69691">
        <ele>9.1999998</ele>
        <time>2012-10-12T12:26:58Z</time>
      </trkpt>
      <trkpt lat="43.41081" lon="6.69817">
        <ele>20.3999996</ele>
        <time>2012-10-12T12:27:49Z</time>
      </trkpt>
      <trkpt lat="43.41046" lon="6.69893">
        <ele>25.3999996</ele>
        <time>2012-10-12T12:28:29Z</time>
      </trkpt>
      <trkpt lat="43.41052" lon="6.69922">
        <ele>27.3999996</ele>
        <time>2012-10-12T12:28:45Z</time>
      </trkpt>
      <trkpt lat="43.41032" lon="6.69973">
        <ele>33.4000015</ele>
        <time>2012-10-12T12:29:16Z</time>
      </trkpt>
      <trkpt lat="43.4103" lon="6.69986">
        <ele>33.7999992</ele>
        <time>2012-10-12T12:29:24Z</time>
      </trkpt>
      <trkpt lat="43.41048" lon="6.701">
        <ele>45.5999985</ele>
        <time>2012-10-12T12:30:28Z</time>
      </trkpt>
      <trkpt lat="43.41037" lon="6.70122">
        <ele>47.5999985</ele>
        <time>2012-10-12T12:30:42Z</time>
      </trkpt>
      <trkpt lat="43.41007" lon="6.70151">
        <ele>53.4000015</ele>
        <time>2012-10-12T12:31:22Z</time>
      </trkpt>
      <trkpt lat="43.40969" lon="6.7014">
        <ele>54</ele>
        <time>2012-10-12T12:31:42Z</time>
      </trkpt>
      <trkpt lat="43.40923" lon="6.70171">
        <ele>62.4000015</ele>
        <time>2012-10-12T12:32:05Z</time>
      </trkpt>
      <trkpt lat="43.40898" lon="6.70167">
        <ele>62.4000015</ele>
        <time>2012-10-12T12:32:22Z</time>
      </trkpt>
      <trkpt lat="43.40877" lon="6.70218">
        <ele>62.4000015</ele>
        <time>2012-10-12T12:32:43Z</time>
      </trkpt>
      <trkpt lat="43.40854" lon="6.70236">
        <ele>62.4000015</ele>
        <time>2012-10-12T12:32:51Z</time>
      </trkpt>
      <trkpt lat="43.40805" lon="6.70243">
        <ele>61.5999985</ele>
        <time>2012-10-12T12:33:02Z</time>
      </trkpt>
      <trkpt lat="43.40685" lon="6.70161">
        <ele>70.8000031</ele>
        <time>2012-10-12T12:34:22Z</time>
      </trkpt>
      <trkpt lat="43.40585" lon="6.70118">
        <ele>70.8000031</ele>
        <time>2012-10-12T12:34:56Z</time>
      </trkpt>
      <trkpt lat="43.40457" lon="6.7011">
        <ele>75.1999969</ele>
        <time>2012-10-12T12:35:40Z</time>
      </trkpt>
      <trkpt lat="43.40395" lon="6.70073">
        <ele>83.5999985</ele>
        <time>2012-10-12T12:36:20Z</time>
      </trkpt>
      <trkpt lat="43.40327" lon="6.70036">
        <ele>85.5999985</ele>
        <time>2012-10-12T12:37:02Z</time>
      </trkpt>
      <trkpt lat="43.40263" lon="6.69967">
        <ele>85.5999985</ele>
        <time>2012-10-12T12:37:20Z</time>
      </trkpt>
      <trkpt lat="43.40226" lon="6.69944">
        <ele>82.8000031</ele>
        <time>2012-10-12T12:37:27Z</time>
      </trkpt>
      <trkpt lat="43.40124" lon="6.70044">
        <ele>69.8000031</ele>
        <time>2012-10-12T12:37:40Z</time>
      </trkpt>
      <trkpt lat="43.40074" lon="6.70126">
        <ele>75</ele>
        <time>2012-10-12T12:38:07Z</time>
      </trkpt>
      <trkpt lat="43.40021" lon="6.70108">
        <ele>84.4000015</ele>
        <time>2012-10-12T12:38:41Z</time>
      </trkpt>
      <trkpt lat="43.40005" lon="6.70104">
        <ele>85.1999969</ele>
        <time>2012-10-12T12:38:52Z</time>
      </trkpt>
      <trkpt lat="43.39901" lon="6.7014">
        <ele>104.1999969</ele>
        <time>2012-10-12T12:40:08Z</time>
      </trkpt>
      <trkpt lat="43.39862" lon="6.70179">
        <ele>108.1999969</ele>
        <time>2012-10-12T12:41:40Z</time>
      </trkpt>
      <trkpt lat="43.39739" lon="6.70174">
        <ele>108.1999969</ele>
        <time>2012-10-12T12:42:10Z</time>
      </trkpt>
      <trkpt lat="43.39673" lon="6.70138">
        <ele>108.1999969</ele>
        <time>2012-10-12T12:42:24Z</time>
      </trkpt>
      <trkpt lat="43.39621" lon="6.70067">
        <ele>112.8000031</ele>
        <time>2012-10-12T12:42:47Z</time>
      </trkpt>
      <trkpt lat="43.39611" lon="6.70062">
        <ele>112.8000031</ele>
        <time>2012-10-12T12:42:52Z</time>
      </trkpt>
      <trkpt lat="43.39511" lon="6.70106">
        <ele>112.8000031</ele>
        <time>2012-10-12T12:43:29Z</time>
      </trkpt>
      <trkpt lat="43.39449" lon="6.70102">
        <ele>112.8000031</ele>
        <time>2012-10-12T12:43:40Z</time>
      </trkpt>
      <trkpt lat="43.39382" lon="6.70083">
        <ele>108.1999969</ele>
        <time>2012-10-12T12:43:51Z</time>
      </trkpt>
      <trkpt lat="43.39356" lon="6.70063">
        <ele>108.1999969</ele>
        <time>2012-10-12T12:43:56Z</time>
      </trkpt>
      <trkpt lat="43.39261" lon="6.69944">
        <ele>109</ele>
        <time>2012-10-12T12:44:18Z</time>
      </trkpt>
      <trkpt lat="43.39221" lon="6.69927">
        <ele>109</ele>
        <time>2012-10-12T12:44:28Z</time>
      </trkpt>
      <trkpt lat="43.3918" lon="6.69869">
        <ele>105</ele>
        <time>2012-10-12T12:44:40Z</time>
      </trkpt>
      <trkpt lat="43.39144" lon="6.69847">
        <ele>109.8000031</ele>
        <time>2012-10-12T12:44:59Z</time>
      </trkpt>
      <trkpt lat="43.3911" lon="6.69646">
        <ele>133.1999969</ele>
        <time>2012-10-12T12:46:48Z</time>
      </trkpt>
      <trkpt lat="43.39079" lon="6.6954">
        <ele>144</ele>
        <time>2012-10-12T12:47:50Z</time>
      </trkpt>
      <trkpt lat="43.39022" lon="6.69498">
        <ele>154.6000061</ele>
        <time>2012-10-12T12:48:40Z</time>
      </trkpt>
      <trkpt lat="43.38973" lon="6.69453">
        <ele>161</ele>
        <time>2012-10-12T12:51:06Z</time>
      </trkpt>
      <trkpt lat="43.3893" lon="6.69337">
        <ele>176.3999939</ele>
        <time>2012-10-12T12:52:51Z</time>
      </trkpt>
      <trkpt lat="43.38822" lon="6.69259">
        <ele>196.8000031</ele>
        <time>2012-10-12T12:55:27Z</time>
      </trkpt>
      <trkpt lat="43.38758" lon="6.6918">
        <ele>209</ele>
        <time>2012-10-12T12:57:06Z</time>
      </trkpt>
      <trkpt lat="43.38746" lon="6.69166">
        <ele>209</ele>
        <time>2012-10-12T12:57:17Z</time>
      </trkpt>
      <trkpt lat="43.3871" lon="6.69136">
        <ele>211.1999969</ele>
        <time>2012-10-12T12:57:42Z</time>
      </trkpt>
      <trkpt lat="43.38733" lon="6.69104">
        <ele>217.6000061</ele>
        <time>2012-10-12T12:58:05Z</time>
      </trkpt>
      <trkpt lat="43.38751" lon="6.69105">
        <ele>219.6000061</ele>
        <time>2012-10-12T12:58:48Z</time>
      </trkpt>
      <trkpt lat="43.38802" lon="6.69138">
        <ele>221.6000061</ele>
        <time>2012-10-12T12:59:22Z</time>
      </trkpt>
      <trkpt lat="43.38831" lon="6.69129">
        <ele>221.6000061</ele>
        <time>2012-10-12T12:59:32Z</time>
      </trkpt>
      <trkpt lat="43.38915" lon="6.6906">
        <ele>211.3999939</ele>
        <time>2012-10-12T12:59:51Z</time>
      </trkpt>
      <trkpt lat="43.38962" lon="6.69043">
        <ele>207.1999969</ele>
        <time>2012-10-12T12:59:59Z</time>
      </trkpt>
      <trkpt lat="43.39055" lon="6.6901">
        <ele>191.6000061</ele>
        <time>2012-10-12T13:00:31Z</time>
      </trkpt>
      <trkpt lat="43.39186" lon="6.68921">
        <ele>163.3999939</ele>
        <time>2012-10-12T13:01:43Z</time>
      </trkpt>
      <trkpt lat="43.39277" lon="6.68922">
        <ele>152.6000061</ele>
        <time>2012-10-12T13:02:07Z</time>
      </trkpt>
      <trkpt lat="43.39335" lon="6.68884">
        <ele>143.1999969</ele>
        <time>2012-10-12T13:02:25Z</time>
      </trkpt>
      <trkpt lat="43.39369" lon="6.689">
        <ele>139.3999939</ele>
        <time>2012-10-12T13:02:32Z</time>
      </trkpt>
      <trkpt lat="43.39439" lon="6.68931">
        <ele>126.4000015</ele>
        <time>2012-10-12T13:02:54Z</time>
      </trkpt>
      <trkpt lat="43.39503" lon="6.68877">
        <ele>115.8000031</ele>
        <time>2012-10-12T13:03:20Z</time>
      </trkpt>
      <trkpt lat="43.39527" lon="6.68847">
        <ele>109.4000015</ele>
        <time>2012-10-12T13:03:30Z</time>
      </trkpt>
      <trkpt lat="43.39532" lon="6.6882">
        <ele>107</ele>
        <time>2012-10-12T13:03:37Z</time>
      </trkpt>
      <trkpt lat="43.3949" lon="6.68755">
        <ele>105.8000031</ele>
        <time>2012-10-12T13:03:54Z</time>
      </trkpt>
      <trkpt lat="43.39465" lon="6.68702">
        <ele>101.1999969</ele>
        <time>2012-10-12T13:04:06Z</time>
      </trkpt>
      <trkpt lat="43.39467" lon="6.68643">
        <ele>100.8000031</ele>
        <time>2012-10-12T13:04:19Z</time>
      </trkpt>
      <trkpt lat="43.39481" lon="6.68541">
        <ele>94.8000031</ele>
        <time>2012-10-12T13:04:39Z</time>
      </trkpt>
      <trkpt lat="43.39404" lon="6.68472">
        <ele>84.1999969</ele>
        <time>2012-10-12T13:05:03Z</time>
      </trkpt>
      <trkpt lat="43.39376" lon="6.68399">
        <ele>80.4000015</ele>
        <time>2012-10-12T13:05:16Z</time>
      </trkpt>
      <trkpt lat="43.39346" lon="6.68341">
        <ele>71</ele>
        <time>2012-10-12T13:05:38Z</time>
      </trkpt>
      <trkpt lat="43.3931" lon="6.68335">
        <ele>68.5999985</ele>
        <time>2012-10-12T13:06:02Z</time>
      </trkpt>
      <trkpt lat="43.39313" lon="6.68276">
        <ele>70.5999985</ele>
        <time>2012-10-12T13:06:20Z</time>
      </trkpt>
      <trkpt lat="43.39277" lon="6.68242">
        <ele>77</ele>
        <time>2012-10-12T13:06:50Z</time>
      </trkpt>
      <trkpt lat="43.39272" lon="6.68236">
        <ele>77.4000015</ele>
        <time>2012-10-12T13:06:54Z</time>
      </trkpt>
      <trkpt lat="43.39277" lon="6.68178">
        <ele>79.1999969</ele>
        <time>2012-10-12T13:07:11Z</time>
      </trkpt>
      <trkpt lat="43.39324" lon="6.68093">
        <ele>81.1999969</ele>
        <time>2012-10-12T13:07:43Z</time>
      </trkpt>
      <trkpt lat="43.39325" lon="6.68054">
        <ele>85.5999985</ele>
        <time>2012-10-12T13:08:01Z</time>
      </trkpt>
      <trkpt lat="43.39324" lon="6.68032">
        <ele>85.5999985</ele>
        <time>2012-10-12T13:08:09Z</time>
      </trkpt>
      <trkpt lat="43.39332" lon="6.68018">
        <ele>85.5999985</ele>
        <time>2012-10-12T13:08:13Z</time>
      </trkpt>
      <trkpt lat="43.39332" lon="6.67976">
        <ele>83.1999969</ele>
        <time>2012-10-12T13:08:21Z</time>
      </trkpt>
      <trkpt lat="43.39297" lon="6.67877">
        <ele>69.8000031</ele>
        <time>2012-10-12T13:08:57Z</time>
      </trkpt>
      <trkpt lat="43.39318" lon="6.67844">
        <ele>62.4000015</ele>
        <time>2012-10-12T13:09:29Z</time>
      </trkpt>
      <trkpt lat="43.39309" lon="6.67798">
        <ele>52.2000008</ele>
        <time>2012-10-12T13:10:00Z</time>
      </trkpt>
      <trkpt lat="43.39334" lon="6.67747">
        <ele>46.4000015</ele>
        <time>2012-10-12T13:10:26Z</time>
      </trkpt>
      <trkpt lat="43.39314" lon="6.67716">
        <ele>42</ele>
        <time>2012-10-12T13:11:12Z</time>
      </trkpt>
      <trkpt lat="43.39268" lon="6.67664">
        <ele>23.3999996</ele>
        <time>2012-10-12T13:11:52Z</time>
      </trkpt>
      <trkpt lat="43.39222" lon="6.67666">
        <ele>21.2000008</ele>
        <time>2012-10-12T13:13:08Z</time>
      </trkpt>
      <trkpt lat="43.39215" lon="6.67632">
        <ele>18.7999992</ele>
        <time>2012-10-12T13:13:21Z</time>
      </trkpt>
      <trkpt lat="43.39336" lon="6.67615">
        <ele>18</ele>
        <time>2012-10-12T13:13:55Z</time>
      </trkpt>
      <trkpt lat="43.39399" lon="6.67577">
        <ele>18</ele>
        <time>2012-10-12T13:14:11Z</time>
      </trkpt>
      <trkpt lat="43.39452" lon="6.67583">
        <ele>18</ele>
        <time>2012-10-12T13:14:25Z</time>
      </trkpt>
      <trkpt lat="43.39486" lon="6.67558">
        <ele>18</ele>
        <time>2012-10-12T13:14:34Z</time>
      </trkpt>
      <trkpt lat="43.39512" lon="6.67557">
        <ele>16.2000008</ele>
        <time>2012-10-12T13:14:41Z</time>
      </trkpt>
      <trkpt lat="43.39539" lon="6.67522">
        <ele>15.8000002</ele>
        <time>2012-10-12T13:15:04Z</time>
      </trkpt>
      <trkpt lat="43.39617" lon="6.67486">
        <ele>15.8000002</ele>
        <time>2012-10-12T13:15:31Z</time>
      </trkpt>
      <trkpt lat="43.39705" lon="6.6748">
        <ele>15.8000002</ele>
        <time>2012-10-12T13:15:57Z</time>
      </trkpt>
      <trkpt lat="43.39727" lon="6.67492">
        <ele>13.8000002</ele>
        <time>2012-10-12T13:16:05Z</time>
      </trkpt>
      <trkpt lat="43.39741" lon="6.67467">
        <ele>13.8000002</ele>
        <time>2012-10-12T13:16:12Z</time>
      </trkpt>
      <trkpt lat="43.39736" lon="6.67426">
        <ele>16.3999996</ele>
        <time>2012-10-12T13:16:20Z</time>
      </trkpt>
      <trkpt lat="43.39741" lon="6.67301">
        <ele>16.3999996</ele>
        <time>2012-10-12T13:16:42Z</time>
      </trkpt>
      <trkpt lat="43.39722" lon="6.67254">
        <ele>16.3999996</ele>
        <time>2012-10-12T13:16:54Z</time>
      </trkpt>
      <trkpt lat="43.39671" lon="6.67204">
        <ele>16.3999996</ele>
        <time>2012-10-12T13:24:29Z</time>
      </trkpt>
      <trkpt lat="43.39583" lon="6.67228">
        <ele>16.3999996</ele>
        <time>2012-10-12T13:24:52Z</time>
      </trkpt>
      <trkpt lat="43.39564" lon="6.67217">
        <ele>16.3999996</ele>
        <time>2012-10-12T13:24:57Z</time>
      </trkpt>
      <trkpt lat="43.39486" lon="6.67105">
        <ele>16.2000008</ele>
        <time>2012-10-12T13:25:24Z</time>
      </trkpt>
      <trkpt lat="43.3945" lon="6.67082">
        <ele>16.2000008</ele>
        <time>2012-10-12T13:25:39Z</time>
      </trkpt>
      <trkpt lat="43.39392" lon="6.66973">
        <ele>18.2000008</ele>
        <time>2012-10-12T13:26:09Z</time>
      </trkpt>
      <trkpt lat="43.39269" lon="6.6688">
        <ele>18.2000008</ele>
        <time>2012-10-12T13:26:45Z</time>
      </trkpt>
      <trkpt lat="43.3924" lon="6.66813">
        <ele>16</ele>
        <time>2012-10-12T13:27:01Z</time>
      </trkpt>
      <trkpt lat="43.39276" lon="6.66716">
        <ele>20.2000008</ele>
        <time>2012-10-12T13:27:40Z</time>
      </trkpt>
      <trkpt lat="43.39262" lon="6.66651">
        <ele>29</ele>
        <time>2012-10-12T13:28:01Z</time>
      </trkpt>
      <trkpt lat="43.39287" lon="6.66591">
        <ele>29</ele>
        <time>2012-10-12T13:28:41Z</time>
      </trkpt>
      <trkpt lat="43.3929" lon="6.66537">
        <ele>33.7999992</ele>
        <time>2012-10-12T13:29:02Z</time>
      </trkpt>
      <trkpt lat="43.39279" lon="6.66474">
        <ele>42.5999985</ele>
        <time>2012-10-12T13:29:37Z</time>
      </trkpt>
      <trkpt lat="43.39243" lon="6.66461">
        <ele>50.2000008</ele>
        <time>2012-10-12T13:30:09Z</time>
      </trkpt>
      <trkpt lat="43.39181" lon="6.66342">
        <ele>52.4000015</ele>
        <time>2012-10-12T13:31:56Z</time>
      </trkpt>
      <trkpt lat="43.39115" lon="6.66303">
        <ele>56.5999985</ele>
        <time>2012-10-12T13:32:27Z</time>
      </trkpt>
      <trkpt lat="43.39058" lon="6.66231">
        <ele>59.5999985</ele>
        <time>2012-10-12T13:33:03Z</time>
      </trkpt>
      <trkpt lat="43.39019" lon="6.66214">
        <ele>64.8000031</ele>
        <time>2012-10-12T13:33:32Z</time>
      </trkpt>
      <trkpt lat="43.39011" lon="6.66148">
        <ele>69</ele>
        <time>2012-10-12T13:34:09Z</time>
      </trkpt>
      <trkpt lat="43.3901" lon="6.66026">
        <ele>71</ele>
        <time>2012-10-12T13:34:54Z</time>
      </trkpt>
      <trkpt lat="43.38955" lon="6.66">
        <ele>72.1999969</ele>
        <time>2012-10-12T13:35:15Z</time>
      </trkpt>
      <trkpt lat="43.38922" lon="6.65962">
        <ele>75.1999969</ele>
        <time>2012-10-12T13:35:36Z</time>
      </trkpt>
      <trkpt lat="43.3887" lon="6.65921">
        <ele>77.1999969</ele>
        <time>2012-10-12T13:36:03Z</time>
      </trkpt>
      <trkpt lat="43.38807" lon="6.65909">
        <ele>77.1999969</ele>
        <time>2012-10-12T13:36:22Z</time>
      </trkpt>
      <trkpt lat="43.38781" lon="6.65933">
        <ele>77.1999969</ele>
        <time>2012-10-12T13:36:30Z</time>
      </trkpt>
      <trkpt lat="43.38758" lon="6.65992">
        <ele>74.5999985</ele>
        <time>2012-10-12T13:36:37Z</time>
      </trkpt>
      <trkpt lat="43.3869" lon="6.66088">
        <ele>72.8000031</ele>
        <time>2012-10-12T13:37:00Z</time>
      </trkpt>
      <trkpt lat="43.38655" lon="6.66176">
        <ele>76.5999985</ele>
        <time>2012-10-12T13:37:26Z</time>
      </trkpt>
      <trkpt lat="43.38635" lon="6.66197">
        <ele>79</ele>
        <time>2012-10-12T13:37:39Z</time>
      </trkpt>
      <trkpt lat="43.38575" lon="6.66175">
        <ele>79</ele>
        <time>2012-10-12T13:37:57Z</time>
      </trkpt>
      <trkpt lat="43.38554" lon="6.66094">
        <ele>76.8000031</ele>
        <time>2012-10-12T13:38:11Z</time>
      </trkpt>
      <trkpt lat="43.38571" lon="6.66051">
        <ele>76.8000031</ele>
        <time>2012-10-12T13:38:19Z</time>
      </trkpt>
      <trkpt lat="43.38499" lon="6.65975">
        <ele>74.8000031</ele>
        <time>2012-10-12T13:38:39Z</time>
      </trkpt>
      <trkpt lat="43.38484" lon="6.65914">
        <ele>74.8000031</ele>
        <time>2012-10-12T13:38:47Z</time>
      </trkpt>
      <trkpt lat="43.38484" lon="6.65875">
        <ele>72.8000031</ele>
        <time>2012-10-12T13:38:52Z</time>
      </trkpt>
      <trkpt lat="43.38501" lon="6.65856">
        <ele>72.8000031</ele>
        <time>2012-10-12T13:38:56Z</time>
      </trkpt>
      <trkpt lat="43.38514" lon="6.65829">
        <ele>70.1999969</ele>
        <time>2012-10-12T13:39:01Z</time>
      </trkpt>
      <trkpt lat="43.38438" lon="6.65803">
        <ele>68.4000015</ele>
        <time>2012-10-12T13:39:19Z</time>
      </trkpt>
      <trkpt lat="43.38443" lon="6.65739">
        <ele>66.5999985</ele>
        <time>2012-10-12T13:39:28Z</time>
      </trkpt>
      <trkpt lat="43.38471" lon="6.65695">
        <ele>66.1999969</ele>
        <time>2012-10-12T13:39:36Z</time>
      </trkpt>
      <trkpt lat="43.38492" lon="6.65615">
        <ele>63.5999985</ele>
        <time>2012-10-12T13:39:47Z</time>
      </trkpt>
      <trkpt lat="43.38495" lon="6.65557">
        <ele>61.5999985</ele>
        <time>2012-10-12T13:39:54Z</time>
      </trkpt>
      <trkpt lat="43.38518" lon="6.65519">
        <ele>59.5999985</ele>
        <time>2012-10-12T13:40:02Z</time>
      </trkpt>
      <trkpt lat="43.38466" lon="6.65522">
        <ele>60</ele>
        <time>2012-10-12T13:40:21Z</time>
      </trkpt>
      <trkpt lat="43.38457" lon="6.65508">
        <ele>62.4000015</ele>
        <time>2012-10-12T13:40:28Z</time>
      </trkpt>
      <trkpt lat="43.38514" lon="6.6544">
        <ele>66.8000031</ele>
        <time>2012-10-12T13:41:19Z</time>
      </trkpt>
      <trkpt lat="43.38518" lon="6.6541">
        <ele>66.8000031</ele>
        <time>2012-10-12T13:41:24Z</time>
      </trkpt>
      <trkpt lat="43.38471" lon="6.65366">
        <ele>66.8000031</ele>
        <time>2012-10-12T13:41:39Z</time>
      </trkpt>
      <trkpt lat="43.38456" lon="6.65329">
        <ele>66.8000031</ele>
        <time>2012-10-12T13:41:45Z</time>
      </trkpt>
      <trkpt lat="43.38427" lon="6.65239">
        <ele>64.5999985</ele>
        <time>2012-10-12T13:41:59Z</time>
      </trkpt>
      <trkpt lat="43.38417" lon="6.65132">
        <ele>64.5999985</ele>
        <time>2012-10-12T13:42:18Z</time>
      </trkpt>
      <trkpt lat="43.38416" lon="6.65081">
        <ele>61.2000008</ele>
        <time>2012-10-12T13:42:24Z</time>
      </trkpt>
      <trkpt lat="43.38358" lon="6.64963">
        <ele>57.7999992</ele>
        <time>2012-10-12T13:42:43Z</time>
      </trkpt>
      <trkpt lat="43.3835" lon="6.64914">
        <ele>55</ele>
        <time>2012-10-12T13:42:49Z</time>
      </trkpt>
      <trkpt lat="43.3832" lon="6.649">
        <ele>53.2000008</ele>
        <time>2012-10-12T13:42:56Z</time>
      </trkpt>
      <trkpt lat="43.38306" lon="6.64826">
        <ele>53.2000008</ele>
        <time>2012-10-12T13:43:09Z</time>
      </trkpt>
      <trkpt lat="43.38304" lon="6.64809">
        <ele>51.5999985</ele>
        <time>2012-10-12T13:43:12Z</time>
      </trkpt>
      <trkpt lat="43.38277" lon="6.64799">
        <ele>54.7999992</ele>
        <time>2012-10-12T13:43:51Z</time>
      </trkpt>
      <trkpt lat="43.38232" lon="6.64769">
        <ele>54.7999992</ele>
        <time>2012-10-12T13:45:02Z</time>
      </trkpt>
      <trkpt lat="43.381" lon="6.64757">
        <ele>71.5999985</ele>
        <time>2012-10-12T13:48:24Z</time>
      </trkpt>
      <trkpt lat="43.38083" lon="6.64737">
        <ele>71.5999985</ele>
        <time>2012-10-12T13:48:38Z</time>
      </trkpt>
      <trkpt lat="43.38099" lon="6.64508">
        <ele>73.8000031</ele>
        <time>2012-10-12T13:49:36Z</time>
      </trkpt>
      <trkpt lat="43.38095" lon="6.64493">
        <ele>73.8000031</ele>
        <time>2012-10-12T13:49:41Z</time>
      </trkpt>
      <trkpt lat="43.37909" lon="6.6448">
        <ele>80</ele>
        <time>2012-10-12T13:50:51Z</time>
      </trkpt>
      <trkpt lat="43.37841" lon="6.64479">
        <ele>78</ele>
        <time>2012-10-12T13:51:09Z</time>
      </trkpt>
      <trkpt lat="43.37763" lon="6.64523">
        <ele>80</ele>
        <time>2012-10-12T13:51:38Z</time>
      </trkpt>
      <trkpt lat="43.37726" lon="6.64585">
        <ele>86.4000015</ele>
        <time>2012-10-12T13:52:17Z</time>
      </trkpt>
      <trkpt lat="43.37665" lon="6.64594">
        <ele>88.4000015</ele>
        <time>2012-10-12T13:52:47Z</time>
      </trkpt>
      <trkpt lat="43.37628" lon="6.64576">
        <ele>88.4000015</ele>
        <time>2012-10-12T13:53:03Z</time>
      </trkpt>
      <trkpt lat="43.37574" lon="6.64592">
        <ele>88.4000015</ele>
        <time>2012-10-12T13:53:17Z</time>
      </trkpt>
      <trkpt lat="43.37399" lon="6.64735">
        <ele>90.4000015</ele>
        <time>2012-10-12T13:54:25Z</time>
      </trkpt>
      <trkpt lat="43.37366" lon="6.64765">
        <ele>90.4000015</ele>
        <time>2012-10-12T13:54:36Z</time>
      </trkpt>
      <trkpt lat="43.37277" lon="6.6477">
        <ele>92.5999985</ele>
        <time>2012-10-12T13:55:01Z</time>
      </trkpt>
      <trkpt lat="43.3722" lon="6.64694">
        <ele>94.5999985</ele>
        <time>2012-10-12T13:55:29Z</time>
      </trkpt>
      <trkpt lat="43.37158" lon="6.64717">
        <ele>96.5999985</ele>
        <time>2012-10-12T13:55:54Z</time>
      </trkpt>
      <trkpt lat="43.37049" lon="6.64772">
        <ele>98.5999985</ele>
        <time>2012-10-12T13:56:32Z</time>
      </trkpt>
      <trkpt lat="43.36938" lon="6.6476">
        <ele>99.4000015</ele>
        <time>2012-10-12T13:57:14Z</time>
      </trkpt>
      <trkpt lat="43.36888" lon="6.64786">
        <ele>102.8000031</ele>
        <time>2012-10-12T13:57:37Z</time>
      </trkpt>
      <trkpt lat="43.36862" lon="6.6486">
        <ele>104.8000031</ele>
        <time>2012-10-12T13:58:28Z</time>
      </trkpt>
      <trkpt lat="43.36804" lon="6.64875">
        <ele>107</ele>
        <time>2012-10-12T13:58:53Z</time>
      </trkpt>
      <trkpt lat="43.36703" lon="6.64891">
        <ele>109</ele>
        <time>2012-10-12T13:59:35Z</time>
      </trkpt>
      <trkpt lat="43.36572" lon="6.64973">
        <ele>113.8000031</ele>
        <time>2012-10-12T14:00:38Z</time>
      </trkpt>
      <trkpt lat="43.36564" lon="6.65028">
        <ele>115.4000015</ele>
        <time>2012-10-12T14:00:56Z</time>
      </trkpt>
      <trkpt lat="43.36586" lon="6.652">
        <ele>121.4000015</ele>
        <time>2012-10-12T14:01:44Z</time>
      </trkpt>
      <trkpt lat="43.36581" lon="6.65279">
        <ele>121.4000015</ele>
        <time>2012-10-12T14:02:04Z</time>
      </trkpt>
      <trkpt lat="43.36595" lon="6.65343">
        <ele>125.5999985</ele>
        <time>2012-10-12T14:02:23Z</time>
      </trkpt>
      <trkpt lat="43.36598" lon="6.65463">
        <ele>125.5999985</ele>
        <time>2012-10-12T14:02:53Z</time>
      </trkpt>
      <trkpt lat="43.36616" lon="6.65523">
        <ele>132</ele>
        <time>2012-10-12T14:03:24Z</time>
      </trkpt>
      <trkpt lat="43.36611" lon="6.65584">
        <ele>132</ele>
        <time>2012-10-12T14:03:47Z</time>
      </trkpt>
      <trkpt lat="43.36682" lon="6.6576">
        <ele>142.6000061</ele>
        <time>2012-10-12T14:05:22Z</time>
      </trkpt>
      <trkpt lat="43.36653" lon="6.65831">
        <ele>146.6000061</ele>
        <time>2012-10-12T14:06:05Z</time>
      </trkpt>
      <trkpt lat="43.36649" lon="6.65863">
        <ele>146.6000061</ele>
        <time>2012-10-12T14:06:16Z</time>
      </trkpt>
      <trkpt lat="43.3667" lon="6.65872">
        <ele>148.6000061</ele>
        <time>2012-10-12T14:06:31Z</time>
      </trkpt>
      <trkpt lat="43.36703" lon="6.65854">
        <ele>152</ele>
        <time>2012-10-12T14:06:54Z</time>
      </trkpt>
      <trkpt lat="43.36741" lon="6.65965">
        <ele>163.3999939</ele>
        <time>2012-10-12T14:08:09Z</time>
      </trkpt>
      <trkpt lat="43.36746" lon="6.65992">
        <ele>165.3999939</ele>
        <time>2012-10-12T14:08:46Z</time>
      </trkpt>
      <trkpt lat="43.36759" lon="6.66038">
        <ele>165.8000031</ele>
        <time>2012-10-12T14:09:10Z</time>
      </trkpt>
      <trkpt lat="43.36758" lon="6.66064">
        <ele>169.6000061</ele>
        <time>2012-10-12T14:09:25Z</time>
      </trkpt>
      <trkpt lat="43.36755" lon="6.66098">
        <ele>170.1999969</ele>
        <time>2012-10-12T14:09:40Z</time>
      </trkpt>
      <trkpt lat="43.36759" lon="6.66132">
        <ele>173.8000031</ele>
        <time>2012-10-12T14:11:44Z</time>
      </trkpt>
      <trkpt lat="43.36709" lon="6.66235">
        <ele>178.3999939</ele>
        <time>2012-10-12T14:12:31Z</time>
      </trkpt>
      <trkpt lat="43.36703" lon="6.66229">
        <ele>182.1999969</ele>
        <time>2012-10-12T14:19:15Z</time>
      </trkpt>
      <trkpt lat="43.36693" lon="6.6628">
        <ele>180.1999969</ele>
        <time>2012-10-12T14:21:20Z</time>
      </trkpt>
      <trkpt lat="43.36673" lon="6.66294">
        <ele>176.1999969</ele>
        <time>2012-10-12T14:21:44Z</time>
      </trkpt>
      <trkpt lat="43.36674" lon="6.6641">
        <ele>170.6000061</ele>
        <time>2012-10-12T14:22:26Z</time>
      </trkpt>
      <trkpt lat="43.36695" lon="6.66549">
        <ele>147.8000031</ele>
        <time>2012-10-12T14:24:11Z</time>
      </trkpt>
      <trkpt lat="43.3672" lon="6.66619">
        <ele>139.3999939</ele>
        <time>2012-10-12T14:25:03Z</time>
      </trkpt>
      <trkpt lat="43.36731" lon="6.66681">
        <ele>128.3999939</ele>
        <time>2012-10-12T14:25:40Z</time>
      </trkpt>
      <trkpt lat="43.36734" lon="6.66836">
        <ele>118.5999985</ele>
        <time>2012-10-12T14:26:21Z</time>
      </trkpt>
      <trkpt lat="43.36722" lon="6.66863">
        <ele>116.1999969</ele>
        <time>2012-10-12T14:26:27Z</time>
      </trkpt>
      <trkpt lat="43.36699" lon="6.66868">
        <ele>113.4000015</ele>
        <time>2012-10-12T14:26:37Z</time>
      </trkpt>
      <trkpt lat="43.3671" lon="6.66971">
        <ele>116.4000015</ele>
        <time>2012-10-12T14:27:54Z</time>
      </trkpt>
      <trkpt lat="43.36699" lon="6.67036">
        <ele>118.4000015</ele>
        <time>2012-10-12T14:28:16Z</time>
      </trkpt>
      <trkpt lat="43.36684" lon="6.67096">
        <ele>118.4000015</ele>
        <time>2012-10-12T14:28:29Z</time>
      </trkpt>
      <trkpt lat="43.36692" lon="6.67199">
        <ele>109.8000031</ele>
        <time>2012-10-12T14:28:41Z</time>
      </trkpt>
      <trkpt lat="43.36664" lon="6.67222">
        <ele>106.8000031</ele>
        <time>2012-10-12T14:28:49Z</time>
      </trkpt>
      <trkpt lat="43.36655" lon="6.67284">
        <ele>104.5999985</ele>
        <time>2012-10-12T14:29:00Z</time>
      </trkpt>
      <trkpt lat="43.36649" lon="6.67295">
        <ele>103</ele>
        <time>2012-10-12T14:29:03Z</time>
      </trkpt>
      <trkpt lat="43.36693" lon="6.67341">
        <ele>104.4000015</ele>
        <time>2012-10-12T14:29:34Z</time>
      </trkpt>
      <trkpt lat="43.36703" lon="6.67367">
        <ele>107</ele>
        <time>2012-10-12T14:29:47Z</time>
      </trkpt>
      <trkpt lat="43.36706" lon="6.67415">
        <ele>107</ele>
        <time>2012-10-12T14:30:02Z</time>
      </trkpt>
      <trkpt lat="43.36755" lon="6.67557">
        <ele>109</ele>
        <time>2012-10-12T14:30:40Z</time>
      </trkpt>
      <trkpt lat="43.36764" lon="6.67584">
        <ele>109</ele>
        <time>2012-10-12T14:30:50Z</time>
      </trkpt>
      <trkpt lat="43.36746" lon="6.67696">
        <ele>117.4000015</ele>
        <time>2012-10-12T14:32:01Z</time>
      </trkpt>
      <trkpt lat="43.36768" lon="6.6794">
        <ele>151.3999939</ele>
        <time>2012-10-12T14:34:23Z</time>
      </trkpt>
      <trkpt lat="43.36768" lon="6.67943">
        <ele>151.3999939</ele>
        <time>2012-10-12T14:34:25Z</time>
      </trkpt>
      <trkpt lat="43.36749" lon="6.67995">
        <ele>151.3999939</ele>
        <time>2012-10-12T14:36:13Z</time>
      </trkpt>
      <trkpt lat="43.367" lon="6.68012">
        <ele>153.6000061</ele>
        <time>2012-10-12T14:36:30Z</time>
      </trkpt>
      <trkpt lat="43.36698" lon="6.68058">
        <ele>153.6000061</ele>
        <time>2012-10-12T14:36:41Z</time>
      </trkpt>
      <trkpt lat="43.36722" lon="6.68132">
        <ele>153.6000061</ele>
        <time>2012-10-12T14:37:01Z</time>
      </trkpt>
      <trkpt lat="43.36702" lon="6.6819">
        <ele>153.6000061</ele>
        <time>2012-10-12T14:37:13Z</time>
      </trkpt>
      <trkpt lat="43.36677" lon="6.68218">
        <ele>153.6000061</ele>
        <time>2012-10-12T14:37:20Z</time>
      </trkpt>
      <trkpt lat="43.36634" lon="6.68243">
        <ele>153.6000061</ele>
        <time>2012-10-12T14:37:31Z</time>
      </trkpt>
      <trkpt lat="43.36563" lon="6.68197">
        <ele>153.6000061</ele>
        <time>2012-10-12T14:37:49Z</time>
      </trkpt>
      <trkpt lat="43.36529" lon="6.68142">
        <ele>153.6000061</ele>
        <time>2012-10-12T14:38:02Z</time>
      </trkpt>
      <trkpt lat="43.36444" lon="6.68124">
        <ele>153.6000061</ele>
        <time>2012-10-12T14:38:23Z</time>
      </trkpt>
      <trkpt lat="43.36441" lon="6.68302">
        <ele>153.6000061</ele>
        <time>2012-10-12T14:38:54Z</time>
      </trkpt>
      <trkpt lat="43.36417" lon="6.68335">
        <ele>153.6000061</ele>
        <time>2012-10-12T14:39:01Z</time>
      </trkpt>
      <trkpt lat="43.36366" lon="6.68359">
        <ele>153.6000061</ele>
        <time>2012-10-12T14:39:12Z</time>
      </trkpt>
      <trkpt lat="43.36346" lon="6.68396">
        <ele>153.6000061</ele>
        <time>2012-10-12T14:39:20Z</time>
      </trkpt>
      <trkpt lat="43.36341" lon="6.68421">
        <ele>152.3999939</ele>
        <time>2012-10-12T14:39:25Z</time>
      </trkpt>
      <trkpt lat="43.36422" lon="6.6849">
        <ele>146</ele>
        <time>2012-10-12T14:39:42Z</time>
      </trkpt>
      <trkpt lat="43.36507" lon="6.68516">
        <ele>139</ele>
        <time>2012-10-12T14:39:54Z</time>
      </trkpt>
      <trkpt lat="43.36595" lon="6.68724">
        <ele>127.1999969</ele>
        <time>2012-10-12T14:40:15Z</time>
      </trkpt>
      <trkpt lat="43.36617" lon="6.68831">
        <ele>120</ele>
        <time>2012-10-12T14:40:26Z</time>
      </trkpt>
      <trkpt lat="43.36546" lon="6.68945">
        <ele>111.5999985</ele>
        <time>2012-10-12T14:40:42Z</time>
      </trkpt>
      <trkpt lat="43.3652" lon="6.68966">
        <ele>109.1999969</ele>
        <time>2012-10-12T14:40:46Z</time>
      </trkpt>
      <trkpt lat="43.36457" lon="6.68967">
        <ele>102.4000015</ele>
        <time>2012-10-12T14:40:56Z</time>
      </trkpt>
      <trkpt lat="43.36438" lon="6.69052">
        <ele>96.4000015</ele>
        <time>2012-10-12T14:41:07Z</time>
      </trkpt>
      <trkpt lat="43.36451" lon="6.6909">
        <ele>93.5999985</ele>
        <time>2012-10-12T14:41:12Z</time>
      </trkpt>
      <trkpt lat="43.36536" lon="6.69069">
        <ele>85.8000031</ele>
        <time>2012-10-12T14:41:26Z</time>
      </trkpt>
      <trkpt lat="43.36585" lon="6.69092">
        <ele>82.5999985</ele>
        <time>2012-10-12T14:41:32Z</time>
      </trkpt>
      <trkpt lat="43.36597" lon="6.69104">
        <ele>81.1999969</ele>
        <time>2012-10-12T14:41:34Z</time>
      </trkpt>
      <trkpt lat="43.36648" lon="6.69278">
        <ele>70.5999985</ele>
        <time>2012-10-12T14:41:50Z</time>
      </trkpt>
      <trkpt lat="43.36686" lon="6.69375">
        <ele>61.2000008</ele>
        <time>2012-10-12T14:42:01Z</time>
      </trkpt>
      <trkpt lat="43.36748" lon="6.69404">
        <ele>56.2000008</ele>
        <time>2012-10-12T14:42:10Z</time>
      </trkpt>
      <trkpt lat="43.36777" lon="6.69454">
        <ele>51.5999985</ele>
        <time>2012-10-12T14:42:17Z</time>
      </trkpt>
      <trkpt lat="43.3683" lon="6.69472">
        <ele>47.2000008</ele>
        <time>2012-10-12T14:42:25Z</time>
      </trkpt>
      <trkpt lat="43.36874" lon="6.69601">
        <ele>39.5999985</ele>
        <time>2012-10-12T14:42:38Z</time>
      </trkpt>
      <trkpt lat="43.36886" lon="6.7004">
        <ele>22.2000008</ele>
        <time>2012-10-12T14:43:15Z</time>
      </trkpt>
      <trkpt lat="43.36881" lon="6.70083">
        <ele>21.3999996</ele>
        <time>2012-10-12T14:43:19Z</time>
      </trkpt>
      <trkpt lat="43.36835" lon="6.70181">
        <ele>17.3999996</ele>
        <time>2012-10-12T14:43:31Z</time>
      </trkpt>
      <trkpt lat="43.36803" lon="6.70422">
        <ele>13.3999996</ele>
        <time>2012-10-12T14:43:58Z</time>
      </trkpt>
      <trkpt lat="43.36859" lon="6.70466">
        <ele>15.6000004</ele>
        <time>2012-10-12T14:44:21Z</time>
      </trkpt>
      <trkpt lat="43.36862" lon="6.70474">
        <ele>17.7999992</ele>
        <time>2012-10-12T14:46:30Z</time>
      </trkpt>
      <trkpt lat="43.36874" lon="6.70497">
        <ele>17.7999992</ele>
        <time>2012-10-12T14:46:38Z</time>
      </trkpt>
      <trkpt lat="43.36886" lon="6.70552">
        <ele>22.7999992</ele>
        <time>2012-10-12T14:47:05Z</time>
      </trkpt>
      <trkpt lat="43.36917" lon="6.7054">
        <ele>32.5999985</ele>
        <time>2012-10-12T14:47:29Z</time>
      </trkpt>
      <trkpt lat="43.3696" lon="6.70517">
        <ele>41.2000008</ele>
        <time>2012-10-12T14:48:07Z</time>
      </trkpt>
      <trkpt lat="43.36996" lon="6.70493">
        <ele>43.7999992</ele>
        <time>2012-10-12T14:48:37Z</time>
      </trkpt>
      <trkpt lat="43.37026" lon="6.70448">
        <ele>49.4000015</ele>
        <time>2012-10-12T14:49:04Z</time>
      </trkpt>
      <trkpt lat="43.37066" lon="6.70388">
        <ele>53.7999992</ele>
        <time>2012-10-12T14:49:36Z</time>
      </trkpt>
      <trkpt lat="43.3709" lon="6.70352">
        <ele>53.7999992</ele>
        <time>2012-10-12T14:49:53Z</time>
      </trkpt>
      <trkpt lat="43.37145" lon="6.70198">
        <ele>60.2000008</ele>
        <time>2012-10-12T14:50:47Z</time>
      </trkpt>
      <trkpt lat="43.37301" lon="6.70142">
        <ele>75</ele>
        <time>2012-10-12T14:52:24Z</time>
      </trkpt>
      <trkpt lat="43.37369" lon="6.70008">
        <ele>96.8000031</ele>
        <time>2012-10-12T14:53:59Z</time>
      </trkpt>
      <trkpt lat="43.37381" lon="6.70005">
        <ele>98.5999985</ele>
        <time>2012-10-12T14:54:10Z</time>
      </trkpt>
      <trkpt lat="43.37399" lon="6.70037">
        <ele>105.5999985</ele>
        <time>2012-10-12T14:54:31Z</time>
      </trkpt>
      <trkpt lat="43.37419" lon="6.70036">
        <ele>109.8000031</ele>
        <time>2012-10-12T14:54:47Z</time>
      </trkpt>
      <trkpt lat="43.37499" lon="6.69941">
        <ele>112.8000031</ele>
        <time>2012-10-12T14:58:28Z</time>
      </trkpt>
      <trkpt lat="43.37516" lon="6.69951">
        <ele>114.1999969</ele>
        <time>2012-10-12T14:58:39Z</time>
      </trkpt>
      <trkpt lat="43.37526" lon="6.69975">
        <ele>116.1999969</ele>
        <time>2012-10-12T14:58:51Z</time>
      </trkpt>
      <trkpt lat="43.37541" lon="6.69998">
        <ele>116.1999969</ele>
        <time>2012-10-12T14:59:06Z</time>
      </trkpt>
      <trkpt lat="43.3758" lon="6.7">
        <ele>122.5999985</ele>
        <time>2012-10-12T14:59:37Z</time>
      </trkpt>
      <trkpt lat="43.3766" lon="6.69973">
        <ele>122.5999985</ele>
        <time>2012-10-12T15:00:06Z</time>
      </trkpt>
      <trkpt lat="43.37715" lon="6.69931">
        <ele>115.1999969</ele>
        <time>2012-10-12T15:00:21Z</time>
      </trkpt>
      <trkpt lat="43.37753" lon="6.69994">
        <ele>118</ele>
        <time>2012-10-12T15:01:01Z</time>
      </trkpt>
      <trkpt lat="43.37816" lon="6.70027">
        <ele>128.3999939</ele>
        <time>2012-10-12T15:02:30Z</time>
      </trkpt>
      <trkpt lat="43.37887" lon="6.70068">
        <ele>130.6000061</ele>
        <time>2012-10-12T15:03:09Z</time>
      </trkpt>
      <trkpt lat="43.37907" lon="6.70128">
        <ele>130.1999969</ele>
        <time>2012-10-12T15:03:20Z</time>
      </trkpt>
      <trkpt lat="43.37939" lon="6.70163">
        <ele>125.5999985</ele>
        <time>2012-10-12T15:03:27Z</time>
      </trkpt>
      <trkpt lat="43.3805" lon="6.70085">
        <ele>114.5999985</ele>
        <time>2012-10-12T15:03:48Z</time>
      </trkpt>
      <trkpt lat="43.38084" lon="6.70069">
        <ele>108</ele>
        <time>2012-10-12T15:04:01Z</time>
      </trkpt>
      <trkpt lat="43.38193" lon="6.70074">
        <ele>92.1999969</ele>
        <time>2012-10-12T15:04:32Z</time>
      </trkpt>
      <trkpt lat="43.38196" lon="6.70098">
        <ele>91</ele>
        <time>2012-10-12T15:04:37Z</time>
      </trkpt>
      <trkpt lat="43.38294" lon="6.7019">
        <ele>91</ele>
        <time>2012-10-12T15:05:16Z</time>
      </trkpt>
      <trkpt lat="43.3831" lon="6.70285">
        <ele>93</ele>
        <time>2012-10-12T15:05:35Z</time>
      </trkpt>
      <trkpt lat="43.38316" lon="6.70301">
        <ele>93</ele>
        <time>2012-10-12T15:05:42Z</time>
      </trkpt>
      <trkpt lat="43.38341" lon="6.70315">
        <ele>93.8000031</ele>
        <time>2012-10-12T15:05:54Z</time>
      </trkpt>
      <trkpt lat="43.38352" lon="6.70341">
        <ele>97.4000015</ele>
        <time>2012-10-12T15:06:09Z</time>
      </trkpt>
      <trkpt lat="43.38371" lon="6.7036">
        <ele>97.4000015</ele>
        <time>2012-10-12T15:06:23Z</time>
      </trkpt>
      <trkpt lat="43.38398" lon="6.70357">
        <ele>101.4000015</ele>
        <time>2012-10-12T15:06:47Z</time>
      </trkpt>
      <trkpt lat="43.38418" lon="6.70368">
        <ele>104.1999969</ele>
        <time>2012-10-12T15:07:04Z</time>
      </trkpt>
      <trkpt lat="43.38428" lon="6.70389">
        <ele>110</ele>
        <time>2012-10-12T15:08:00Z</time>
      </trkpt>
      <trkpt lat="43.38438" lon="6.704">
        <ele>110</ele>
        <time>2012-10-12T15:08:10Z</time>
      </trkpt>
      <trkpt lat="43.38402" lon="6.70466">
        <ele>114.1999969</ele>
        <time>2012-10-12T15:10:24Z</time>
      </trkpt>
      <trkpt lat="43.38359" lon="6.70514">
        <ele>125</ele>
        <time>2012-10-12T15:11:00Z</time>
      </trkpt>
      <trkpt lat="43.38358" lon="6.70536">
        <ele>125</ele>
        <time>2012-10-12T15:11:12Z</time>
      </trkpt>
      <trkpt lat="43.38363" lon="6.70517">
        <ele>125</ele>
        <time>2012-10-12T15:17:59Z</time>
      </trkpt>
      <trkpt lat="43.38382" lon="6.70513">
        <ele>125</ele>
        <time>2012-10-12T15:18:07Z</time>
      </trkpt>
      <trkpt lat="43.38403" lon="6.70515">
        <ele>118.4000015</ele>
        <time>2012-10-12T15:18:22Z</time>
      </trkpt>
      <trkpt lat="43.38443" lon="6.70577">
        <ele>108.8000031</ele>
        <time>2012-10-12T15:18:51Z</time>
      </trkpt>
      <trkpt lat="43.38486" lon="6.70585">
        <ele>103.4000015</ele>
        <time>2012-10-12T15:19:03Z</time>
      </trkpt>
      <trkpt lat="43.3857" lon="6.70719">
        <ele>102.8000031</ele>
        <time>2012-10-12T15:20:03Z</time>
      </trkpt>
      <trkpt lat="43.38602" lon="6.70731">
        <ele>108.4000015</ele>
        <time>2012-10-12T15:21:30Z</time>
      </trkpt>
      <trkpt lat="43.38632" lon="6.70737">
        <ele>108.4000015</ele>
        <time>2012-10-12T15:21:46Z</time>
      </trkpt>
      <trkpt lat="43.38639" lon="6.70739">
        <ele>107.1999969</ele>
        <time>2012-10-12T15:21:51Z</time>
      </trkpt>
      <trkpt lat="43.38653" lon="6.70722">
        <ele>102.1999969</ele>
        <time>2012-10-12T15:22:05Z</time>
      </trkpt>
      <trkpt lat="43.38745" lon="6.70713">
        <ele>106.1999969</ele>
        <time>2012-10-12T15:23:47Z</time>
      </trkpt>
      <trkpt lat="43.38761" lon="6.70702">
        <ele>106.1999969</ele>
        <time>2012-10-12T15:23:53Z</time>
      </trkpt>
      <trkpt lat="43.38812" lon="6.70673">
        <ele>102.1999969</ele>
        <time>2012-10-12T15:24:04Z</time>
      </trkpt>
      <trkpt lat="43.38831" lon="6.7067">
        <ele>97.4000015</ele>
        <time>2012-10-12T15:24:10Z</time>
      </trkpt>
      <trkpt lat="43.38931" lon="6.70575">
        <ele>98</ele>
        <time>2012-10-12T15:25:56Z</time>
      </trkpt>
      <trkpt lat="43.38952" lon="6.70563">
        <ele>93.8000031</ele>
        <time>2012-10-12T15:26:06Z</time>
      </trkpt>
      <trkpt lat="43.38971" lon="6.70583">
        <ele>88.5999985</ele>
        <time>2012-10-12T15:26:20Z</time>
      </trkpt>
      <trkpt lat="43.38996" lon="6.70531">
        <ele>82.5999985</ele>
        <time>2012-10-12T15:26:55Z</time>
      </trkpt>
      <trkpt lat="43.3902" lon="6.70532">
        <ele>73.8000031</ele>
        <time>2012-10-12T15:27:14Z</time>
      </trkpt>
      <trkpt lat="43.39026" lon="6.70508">
        <ele>70.8000031</ele>
        <time>2012-10-12T15:27:25Z</time>
      </trkpt>
      <trkpt lat="43.3905" lon="6.70533">
        <ele>64.5999985</ele>
        <time>2012-10-12T15:27:36Z</time>
      </trkpt>
      <trkpt lat="43.39059" lon="6.70577">
        <ele>61.4000015</ele>
        <time>2012-10-12T15:28:17Z</time>
      </trkpt>
      <trkpt lat="43.39097" lon="6.70611">
        <ele>61.4000015</ele>
        <time>2012-10-12T15:28:29Z</time>
      </trkpt>
      <trkpt lat="43.39116" lon="6.70618">
        <ele>58.2000008</ele>
        <time>2012-10-12T15:28:36Z</time>
      </trkpt>
      <trkpt lat="43.39131" lon="6.70654">
        <ele>56.4000015</ele>
        <time>2012-10-12T15:28:43Z</time>
      </trkpt>
      <trkpt lat="43.39238" lon="6.70701">
        <ele>50.2000008</ele>
        <time>2012-10-12T15:30:15Z</time>
      </trkpt>
      <trkpt lat="43.39263" lon="6.70699">
        <ele>44.2000008</ele>
        <time>2012-10-12T15:30:47Z</time>
      </trkpt>
      <trkpt lat="43.39262" lon="6.7066">
        <ele>37.4000015</ele>
        <time>2012-10-12T15:31:35Z</time>
      </trkpt>
      <trkpt lat="43.39347" lon="6.70653">
        <ele>47.7999992</ele>
        <time>2012-10-12T15:34:34Z</time>
      </trkpt>
      <trkpt lat="43.39434" lon="6.70678">
        <ele>52</ele>
        <time>2012-10-12T15:35:50Z</time>
      </trkpt>
      <trkpt lat="43.39455" lon="6.70684">
        <ele>52</ele>
        <time>2012-10-12T15:36:01Z</time>
      </trkpt>
      <trkpt lat="43.39492" lon="6.70663">
        <ele>55.5999985</ele>
        <time>2012-10-12T15:36:44Z</time>
      </trkpt>
      <trkpt lat="43.39497" lon="6.70633">
        <ele>58</ele>
        <time>2012-10-12T15:36:57Z</time>
      </trkpt>
      <trkpt lat="43.39515" lon="6.70601">
        <ele>58</ele>
        <time>2012-10-12T15:37:11Z</time>
      </trkpt>
      <trkpt lat="43.3954" lon="6.70609">
        <ele>58</ele>
        <time>2012-10-12T15:37:27Z</time>
      </trkpt>
      <trkpt lat="43.39551" lon="6.70632">
        <ele>51.7999992</ele>
        <time>2012-10-12T15:38:06Z</time>
      </trkpt>
      <trkpt lat="43.39578" lon="6.70597">
        <ele>49.5999985</ele>
        <time>2012-10-12T15:38:27Z</time>
      </trkpt>
      <trkpt lat="43.39614" lon="6.70687">
        <ele>53.7999992</ele>
        <time>2012-10-12T15:39:28Z</time>
      </trkpt>
      <trkpt lat="43.39678" lon="6.70649">
        <ele>62</ele>
        <time>2012-10-12T15:40:54Z</time>
      </trkpt>
      <trkpt lat="43.3974" lon="6.70654">
        <ele>61.5999985</ele>
        <time>2012-10-12T15:41:12Z</time>
      </trkpt>
      <trkpt lat="43.39768" lon="6.70572">
        <ele>60</ele>
        <time>2012-10-12T15:41:29Z</time>
      </trkpt>
      <trkpt lat="43.39791" lon="6.70551">
        <ele>60</ele>
        <time>2012-10-12T15:41:37Z</time>
      </trkpt>
      <trkpt lat="43.39826" lon="6.70478">
        <ele>60</ele>
        <time>2012-10-12T15:41:56Z</time>
      </trkpt>
      <trkpt lat="43.39854" lon="6.70509">
        <ele>64.1999969</ele>
        <time>2012-10-12T15:42:17Z</time>
      </trkpt>
      <trkpt lat="43.39889" lon="6.70583">
        <ele>64.1999969</ele>
        <time>2012-10-12T15:42:59Z</time>
      </trkpt>
      <trkpt lat="43.39922" lon="6.70586">
        <ele>64.1999969</ele>
        <time>2012-10-12T15:43:09Z</time>
      </trkpt>
      <trkpt lat="43.39981" lon="6.70538">
        <ele>66.1999969</ele>
        <time>2012-10-12T15:43:41Z</time>
      </trkpt>
      <trkpt lat="43.4" lon="6.70448">
        <ele>68.1999969</ele>
        <time>2012-10-12T15:44:06Z</time>
      </trkpt>
      <trkpt lat="43.40006" lon="6.70421">
        <ele>67</ele>
        <time>2012-10-12T15:44:11Z</time>
      </trkpt>
      <trkpt lat="43.40054" lon="6.70419">
        <ele>66</ele>
        <time>2012-10-12T15:44:37Z</time>
      </trkpt>
      <trkpt lat="43.40068" lon="6.70419">
        <ele>64.4000015</ele>
        <time>2012-10-12T15:44:41Z</time>
      </trkpt>
      <trkpt lat="43.40083" lon="6.7047">
        <ele>62</ele>
        <time>2012-10-12T15:44:53Z</time>
      </trkpt>
      <trkpt lat="43.40099" lon="6.70475">
        <ele>62</ele>
        <time>2012-10-12T15:45:03Z</time>
      </trkpt>
      <trkpt lat="43.40115" lon="6.70543">
        <ele>64</ele>
        <time>2012-10-12T15:45:24Z</time>
      </trkpt>
      <trkpt lat="43.4013" lon="6.70547">
        <ele>64</ele>
        <time>2012-10-12T15:45:34Z</time>
      </trkpt>
      <trkpt lat="43.40141" lon="6.70577">
        <ele>64</ele>
        <time>2012-10-12T15:45:46Z</time>
      </trkpt>
      <trkpt lat="43.40179" lon="6.70641">
        <ele>56.7999992</ele>
        <time>2012-10-12T15:46:00Z</time>
      </trkpt>
      <trkpt lat="43.40208" lon="6.70727">
        <ele>52.2000008</ele>
        <time>2012-10-12T15:46:21Z</time>
      </trkpt>
      <trkpt lat="43.40198" lon="6.70799">
        <ele>49</ele>
        <time>2012-10-12T15:46:31Z</time>
      </trkpt>
      <trkpt lat="43.4016" lon="6.70859">
        <ele>45.4000015</ele>
        <time>2012-10-12T15:46:42Z</time>
      </trkpt>
      <trkpt lat="43.40144" lon="6.70905">
        <ele>40.4000015</ele>
        <time>2012-10-12T15:46:51Z</time>
      </trkpt>
      <trkpt lat="43.4013" lon="6.70964">
        <ele>30.6000004</ele>
        <time>2012-10-12T15:47:12Z</time>
      </trkpt>
      <trkpt lat="43.40137" lon="6.71261">
        <ele>3.2</ele>
        <time>2012-10-12T15:48:10Z</time>
      </trkpt>
      <trkpt lat="43.40052" lon="6.71337">
        <ele>3.2</ele>
        <time>2012-10-12T15:48:33Z</time>
      </trkpt>
      <trkpt lat="43.3999" lon="6.71454">
        <ele>3.2</ele>
        <time>2012-10-12T15:49:01Z</time>
      </trkpt>
      <trkpt lat="43.39975" lon="6.71482">
        <ele>1.2</ele>
        <time>2012-10-12T15:49:08Z</time>
      </trkpt>
      <trkpt lat="43.39989" lon="6.71588">
        <ele>1.2</ele>
        <time>2012-10-12T15:49:30Z</time>
      </trkpt>
      <trkpt lat="43.39973" lon="6.71637">
        <ele>1.2</ele>
        <time>2012-10-12T15:49:44Z</time>
      </trkpt>
      <trkpt lat="43.39993" lon="6.71675">
        <ele>1.2</ele>
        <time>2012-10-12T15:50:50Z</time>
      </trkpt>
      <trkpt lat="43.39984" lon="6.71701">
        <ele>1.2</ele>
        <time>2012-10-12T15:50:56Z</time>
      </trkpt>
      <trkpt lat="43.39939" lon="6.71789">
        <ele>3.4000001</ele>
        <time>2012-10-12T15:51:29Z</time>
      </trkpt>
      <trkpt lat="43.39896" lon="6.71836">
        <ele>5.4000001</ele>
        <time>2012-10-12T15:51:47Z</time>
      </trkpt>
      <trkpt lat="43.39699" lon="6.71904">
        <ele>5.4000001</ele>
        <time>2012-10-12T15:52:44Z</time>
      </trkpt>
      <trkpt lat="43.39579" lon="6.72616">
        <ele>3.4000001</ele>
        <time>2012-10-12T15:54:24Z</time>
      </trkpt>
      <trkpt lat="43.39489" lon="6.72597">
        <ele>1.2</ele>
        <time>2012-10-12T15:54:41Z</time>
      </trkpt>
      <trkpt lat="43.39248" lon="6.72675">
        <ele>1.2</ele>
        <time>2012-10-12T15:55:41Z</time>
      </trkpt>
      <trkpt lat="43.39246" lon="6.72697">
        <ele>1.2</ele>
        <time>2012-10-12T15:55:48Z</time>
      </trkpt>
      <trkpt lat="43.39284" lon="6.72757">
        <ele>5.4000001</ele>
        <time>2012-10-11T15:23:48Z</time>
      </trkpt>
      <trkpt lat="43.3926" lon="6.72848">
        <ele>5.4000001</ele>
        <time>2012-10-11T15:24:16Z</time>
      </trkpt>
      <trkpt lat="43.39229" lon="6.72846">
        <ele>5.4000001</ele>
        <time>2012-10-11T15:24:54Z</time>
      </trkpt>
      <trkpt lat="43.39212" lon="6.72817">
        <ele>7.5999999</ele>
        <time>2012-10-11T15:25:22Z</time>
      </trkpt>
      <trkpt lat="43.39172" lon="6.72808">
        <ele>7.5999999</ele>
        <time>2012-10-11T15:25:37Z</time>
      </trkpt>
      <trkpt lat="43.39112" lon="6.72848">
        <ele>11.8000002</ele>
        <time>2012-10-11T15:25:57Z</time>
      </trkpt>
      <trkpt lat="43.39063" lon="6.72885">
        <ele>11.8000002</ele>
        <time>2012-10-11T15:26:12Z</time>
      </trkpt>
      <trkpt lat="43.38936" lon="6.72803">
        <ele>18.2000008</ele>
        <time>2012-10-11T15:26:56Z</time>
      </trkpt>
      <trkpt lat="43.38896" lon="6.7278">
        <ele>18.2000008</ele>
        <time>2012-10-11T15:27:12Z</time>
      </trkpt>
      <trkpt lat="43.38859" lon="6.72868">
        <ele>18.2000008</ele>
        <time>2012-10-11T15:27:30Z</time>
      </trkpt>
      <trkpt lat="43.38809" lon="6.73004">
        <ele>12</ele>
        <time>2012-10-11T15:27:47Z</time>
      </trkpt>
      <trkpt lat="43.38802" lon="6.73014">
        <ele>9.6000004</ele>
        <time>2012-10-11T15:28:02Z</time>
      </trkpt>
      <trkpt lat="43.3881" lon="6.73041">
        <ele>7.4000001</ele>
        <time>2012-10-11T15:28:20Z</time>
      </trkpt>
      <trkpt lat="43.38827" lon="6.73058">
        <ele>7.4000001</ele>
        <time>2012-10-11T15:28:26Z</time>
      </trkpt>
      <trkpt lat="43.38844" lon="6.7302">
        <ele>7.4000001</ele>
        <time>2012-10-11T15:28:42Z</time>
      </trkpt>
      <trkpt lat="43.38901" lon="6.73065">
        <ele>7.4000001</ele>
        <time>2012-10-11T15:29:22Z</time>
      </trkpt>
      <trkpt lat="43.38926" lon="6.73057">
        <ele>7.4000001</ele>
        <time>2012-10-11T15:29:32Z</time>
      </trkpt>
      <trkpt lat="43.38926" lon="6.73096">
        <ele>7.4000001</ele>
        <time>2012-10-11T15:30:07Z</time>
      </trkpt>
      <trkpt lat="43.3897" lon="6.73173">
        <ele>7.4000001</ele>
        <time>2012-10-11T15:30:49Z</time>
      </trkpt>
      <trkpt lat="43.38984" lon="6.73165">
        <ele>7.4000001</ele>
        <time>2012-10-11T15:31:06Z</time>
      </trkpt>
      <trkpt lat="43.39009" lon="6.73202">
        <ele>7.4000001</ele>
        <time>2012-10-11T15:31:19Z</time>
      </trkpt>
      <trkpt lat="43.3905" lon="6.73183">
        <ele>9.6000004</ele>
        <time>2012-10-11T15:31:41Z</time>
      </trkpt>
      <trkpt lat="43.39086" lon="6.7319">
        <ele>9.6000004</ele>
        <time>2012-10-11T15:31:57Z</time>
      </trkpt>
      <trkpt lat="43.39113" lon="6.73164">
        <ele>7.4000001</ele>
        <time>2012-10-11T15:32:06Z</time>
      </trkpt>
      <trkpt lat="43.39124" lon="6.73061">
        <ele>7.4000001</ele>
        <time>2012-10-11T15:32:30Z</time>
      </trkpt>
      <trkpt lat="43.3914" lon="6.73027">
        <ele>7.4000001</ele>
        <time>2012-10-11T15:32:35Z</time>
      </trkpt>
      <trkpt lat="43.39158" lon="6.72986">
        <ele>5.5999999</ele>
        <time>2012-10-11T15:32:40Z</time>
      </trkpt>
      <trkpt lat="43.39202" lon="6.72923">
        <ele>5.1999998</ele>
        <time>2012-10-11T15:32:53Z</time>
      </trkpt>
      <trkpt lat="43.39219" lon="6.72917">
        <ele>5.1999998</ele>
        <time>2012-10-11T15:33:17Z</time>
      </trkpt>
      <trkpt lat="43.39274" lon="6.72803">
        <ele>5.1999998</ele>
        <time>2012-10-11T15:34:41Z</time>
      </trkpt>
      <trkpt lat="43.3931" lon="6.72765">
        <ele>5.1999998</ele>
        <time>2012-10-11T15:35:01Z</time>
      </trkpt>
      <trkpt lat="43.3938" lon="6.72783">
        <ele>3.2</ele>
        <time>2012-10-12T15:56:55Z</time>
      </trkpt>
      <trkpt lat="43.3986" lon="6.72952">
        <ele>3.2</ele>
        <time>2012-10-12T15:59:19Z</time>
      </trkpt>
      <trkpt lat="43.39949" lon="6.72977">
        <ele>3.2</ele>
        <time>2012-10-12T15:59:38Z</time>
      </trkpt>
      <trkpt lat="43.40168" lon="6.72991">
        <ele>3.2</ele>
        <time>2012-10-12T16:00:25Z</time>
      </trkpt>
      <trkpt lat="43.40308" lon="6.72968">
        <ele>3.2</ele>
        <time>2012-10-12T16:00:54Z</time>
      </trkpt>
      <trkpt lat="43.40403" lon="6.72915">
        <ele>3.2</ele>
        <time>2012-10-12T16:01:15Z</time>
      </trkpt>
      <trkpt lat="43.40898" lon="6.72426">
        <ele>3.2</ele>
        <time>2012-10-12T16:03:23Z</time>
      </trkpt>
      <trkpt lat="43.41023" lon="6.72428">
        <ele>3.2</ele>
        <time>2012-10-12T16:03:50Z</time>
      </trkpt>
      <trkpt lat="43.41167" lon="6.72512">
        <ele>3.2</ele>
        <time>2012-10-12T16:04:25Z</time>
      </trkpt>
      <trkpt lat="43.41198" lon="6.72482">
        <ele>3.2</ele>
        <time>2012-10-12T16:04:33Z</time>
      </trkpt>
      <trkpt lat="43.41339" lon="6.72454">
        <ele>1.2</ele>
        <time>2012-10-12T16:05:05Z</time>
      </trkpt>
      <trkpt lat="43.41397" lon="6.72514">
        <ele>1.2</ele>
        <time>2012-10-12T16:05:21Z</time>
      </trkpt>
      <trkpt lat="43.4144" lon="6.72612">
        <ele>1.2</ele>
        <time>2012-10-12T16:05:42Z</time>
      </trkpt>
      <trkpt lat="43.41534" lon="6.72662">
        <ele>1.2</ele>
        <time>2012-10-12T16:06:06Z</time>
      </trkpt>
      <trkpt lat="43.41517" lon="6.72687">
        <ele>3.4000001</ele>
        <time>2012-10-12T16:06:18Z</time>
      </trkpt>
      <trkpt lat="43.41541" lon="6.72703">
        <ele>5.4000001</ele>
        <time>2012-10-12T16:06:27Z</time>
      </trkpt>
      <trkpt lat="43.41563" lon="6.72713">
        <ele>5.4000001</ele>
        <time>2012-10-12T16:06:34Z</time>
      </trkpt>
      <trkpt lat="43.41579" lon="6.72696">
        <ele>5.4000001</ele>
        <time>2012-10-12T16:06:41Z</time>
      </trkpt>
      <trkpt lat="43.41566" lon="6.72745">
        <ele>1.2</ele>
        <time>2012-10-12T16:07:04Z</time>
      </trkpt>
      <trkpt lat="43.41521" lon="6.72799">
        <ele>1.2</ele>
        <time>2012-10-12T16:07:22Z</time>
      </trkpt>
      <trkpt lat="43.4156" lon="6.72798">
        <ele>1.2</ele>
        <time>2012-10-12T16:07:35Z</time>
      </trkpt>
      <trkpt lat="43.41573" lon="6.72826">
        <ele>1.2</ele>
        <time>2012-10-12T16:07:45Z</time>
      </trkpt>
      <trkpt lat="43.41608" lon="6.72807">
        <ele>1.2</ele>
        <time>2012-10-12T16:07:54Z</time>
      </trkpt>
      <trkpt lat="43.41655" lon="6.72815">
        <ele>1.2</ele>
        <time>2012-10-12T16:08:06Z</time>
      </trkpt>
      <trkpt lat="43.41677" lon="6.72826">
        <ele>1.2</ele>
        <time>2012-10-12T16:08:14Z</time>
      </trkpt>
      <trkpt lat="43.41681" lon="6.72842">
        <ele>1.2</ele>
        <time>2012-10-12T16:08:19Z</time>
      </trkpt>
      <trkpt lat="43.41587" lon="6.72897">
        <ele>1.2</ele>
        <time>2012-10-12T16:08:46Z</time>
      </trkpt>
      <trkpt lat="43.41567" lon="6.72957">
        <ele>1.2</ele>
        <time>2012-10-12T16:09:00Z</time>
      </trkpt>
      <trkpt lat="43.41495" lon="6.7298">
        <ele>1.2</ele>
        <time>2012-10-12T16:09:20Z</time>
      </trkpt>
      <trkpt lat="43.41488" lon="6.73034">
        <ele>1.2</ele>
        <time>2012-10-12T16:09:31Z</time>
      </trkpt>
      <trkpt lat="43.41435" lon="6.73042">
        <ele>1.2</ele>
        <time>2012-10-12T16:09:47Z</time>
      </trkpt>
      <trkpt lat="43.41426" lon="6.73104">
        <ele>1.2</ele>
        <time>2012-10-12T16:09:58Z</time>
      </trkpt>
      <trkpt lat="43.41431" lon="6.7312">
        <ele>1.2</ele>
        <time>2012-10-12T16:10:02Z</time>
      </trkpt>
      <trkpt lat="43.41458" lon="6.73141">
        <ele>1.2</ele>
        <time>2012-10-12T16:10:12Z</time>
      </trkpt>
      <trkpt lat="43.41455" lon="6.73155">
        <ele>1.2</ele>
        <time>2012-10-12T16:10:15Z</time>
      </trkpt>
      <trkpt lat="43.41439" lon="6.73163">
        <ele>1.2</ele>
        <time>2012-10-12T16:10:22Z</time>
      </trkpt>
      <trkpt lat="43.41439" lon="6.73216">
        <ele>1.2</ele>
        <time>2012-10-12T16:10:33Z</time>
      </trkpt>
      <trkpt lat="43.41396" lon="6.73232">
        <ele>1.2</ele>
        <time>2012-10-12T16:10:45Z</time>
      </trkpt>
      <trkpt lat="43.41391" lon="6.73354">
        <ele>1.2</ele>
        <time>2012-10-12T16:11:04Z</time>
      </trkpt>
      <trkpt lat="43.41429" lon="6.73462">
        <ele>1</ele>
        <time>2012-10-12T16:11:23Z</time>
      </trkpt>
      <trkpt lat="43.41595" lon="6.73505">
        <ele>-0.8</ele>
        <time>2012-10-12T16:12:01Z</time>
      </trkpt>
      <trkpt lat="43.41592" lon="6.73573">
        <ele>-0.8</ele>
        <time>2012-10-12T16:12:11Z</time>
      </trkpt>
      <trkpt lat="43.41644" lon="6.7367">
        <ele>-0.8</ele>
        <time>2012-10-12T16:12:31Z</time>
      </trkpt>
      <trkpt lat="43.41547" lon="6.73819">
        <ele>-0.8</ele>
        <time>2012-10-12T16:13:07Z</time>
      </trkpt>
      <trkpt lat="43.41628" lon="6.73871">
        <ele>-0.8</ele>
        <time>2012-10-12T16:13:40Z</time>
      </trkpt>
    </trkseg>
  </trk>
</gpx>